Time;durP1;ratioP1;P1;durP2;ratioP2;P2;SDS_P1;SDS_P2;PMS_P1;PMS_P2;Temp;Humidity;BMP_temperature;BMP_pressure;BME280_temperature;BME280_humidity;BME280_pressure;Samples;Min_cycle;Max_cycle;Signal;HPM_P1;HPM_P2
2022/12/22 03:26:44;;;;;;;10.72;4.53;;;;;;;-1.56;78.47;102148.31;1903942;74;21504;-60
2022/12/22 03:29:13;;;;;;;10.88;6.60;;;;;;;-1.54;78.56;102148.80;1932688;73;21151;-60
2022/12/22 03:31:41;;;;;;;12.13;5.30;;;;;;;-1.59;78.68;102136.58;1930169;74;21135;-60
2022/12/22 03:34:10;;;;;;;11.00;5.92;;;;;;;-1.59;78.94;102141.74;1932567;74;21880;-61
2022/12/22 03:36:39;;;;;;;5.17;3.15;;;;;;;-1.61;78.88;102134.36;1931385;74;21485;-61
2022/12/22 03:39:08;;;;;;;3.08;2.58;;;;;;;-1.63;78.89;102132.14;1932624;74;21042;-61
2022/12/22 03:47:10;;;;;;;11.53;4.97;;;;;;;-1.60;78.76;102143.88;1931669;74;21022;-58
2022/12/22 03:49:39;;;;;;;5.53;2.65;;;;;;;-1.58;78.62;102145.23;1931153;74;21104;-57
2022/12/22 03:52:08;;;;;;;6.78;4.15;;;;;;;-1.57;78.73;102150.45;1930323;74;21042;-57
2022/12/22 03:54:36;;;;;;;6.37;3.00;;;;;;;-1.60;78.81;102152.92;1899842;75;21034;-60
2022/12/22 03:57:05;;;;;;;9.95;3.00;;;;;;;-1.61;78.91;102152.44;1914236;74;21097;-60
2022/12/22 03:59:33;;;;;;;8.40;4.25;;;;;;;-1.60;79.04;102150.76;1932984;74;21120;-60
2022/12/22 04:02:02;;;;;;;5.12;3.47;;;;;;;-1.58;78.96;102151.27;1933029;74;21164;-60
2022/12/22 04:04:31;;;;;;;10.70;4.50;;;;;;;-1.56;79.06;102153.91;1933007;73;21115;-60
2022/12/22 04:07:00;;;;;;;8.30;3.62;;;;;;;-1.55;78.86;102153.05;1932941;74;21034;-60
2022/12/22 04:09:28;;;;;;;10.65;4.20;;;;;;;-1.52;78.77;102157.47;1932626;74;21103;-58
2022/12/22 04:14:44;;;;;;;19.82;6.00;;;;;;;-1.47;78.96;102155.50;1928039;74;21532;-59
2022/12/22 04:17:13;;;;;;;12.35;5.12;;;;;;;-1.49;78.96;102157.16;1927618;74;21151;-59
2022/12/22 04:19:41;;;;;;;16.30;7.45;;;;;;;-1.54;79.13;102151.38;1932933;74;21074;-58
2022/12/22 04:22:10;;;;;;;6.08;3.47;;;;;;;-1.54;79.15;102148.80;1908472;74;21057;-59
2022/12/22 04:24:38;;;;;;;13.20;4.92;;;;;;;-1.57;79.20;102150.45;1919956;74;21042;-59
2022/12/22 04:27:07;;;;;;;14.45;2.70;;;;;;;-1.58;79.12;102146.09;1933034;74;21066;-59
2022/12/22 04:29:36;;;;;;;16.07;6.45;;;;;;;-1.58;79.04;102155.56;1941856;74;21147;-59
2022/12/22 04:32:04;;;;;;;15.15;5.67;;;;;;;-1.60;79.25;102154.21;1943302;74;20994;-61
2022/12/22 04:34:33;;;;;;;6.90;2.85;;;;;;;-1.61;79.31;102148.56;1943570;74;21053;-62
2022/12/22 04:37:02;;;;;;;15.88;6.17;;;;;;;-1.59;79.26;102148.20;1943551;74;21159;-63
2022/12/22 04:39:31;;;;;;;16.35;7.60;;;;;;;-1.62;79.22;102135.63;1943519;74;21437;-63
2022/12/22 04:41:59;;;;;;;23.45;9.93;;;;;;;-1.64;79.63;102144.61;1943257;74;21041;-62
2022/12/22 04:44:28;;;;;;;12.80;7.08;;;;;;;-1.66;79.65;102139.81;1943352;74;21116;-59
2022/12/22 04:46:57;;;;;;;18.42;10.68;;;;;;;-1.66;79.52;102138.52;1943646;74;21141;-60
2022/12/22 04:49:25;;;;;;;16.75;7.95;;;;;;;-1.66;79.49;102146.27;1943496;74;21144;-58
2022/12/22 04:51:54;;;;;;;21.42;9.48;;;;;;;-1.68;79.59;102138.85;1942387;74;21037;-58
2022/12/22 04:54:23;;;;;;;11.55;4.37;;;;;;;-1.70;79.68;102140.52;1943525;74;21051;-58
2022/12/22 04:56:51;;;;;;;9.17;4.20;;;;;;;-1.70;79.57;102139.64;1943379;74;21038;-59
2022/12/22 04:59:20;;;;;;;9.25;4.58;;;;;;;-1.73;79.75;102141.72;1943470;74;21104;-59
2022/12/22 05:01:48;;;;;;;4.05;2.72;;;;;;;-1.75;79.84;102142.95;1929804;74;21112;-59
2022/12/22 05:04:17;;;;;;;11.75;6.12;;;;;;;-1.76;79.88;102144.19;1909775;75;21129;-59
2022/12/22 05:06:46;;;;;;;7.58;4.00;;;;;;;-1.77;79.98;102145.00;1909709;75;21026;-58
2022/12/22 05:09:14;;;;;;;5.97;3.02;;;;;;;-1.78;80.10;102141.55;1909614;75;21038;-59
2022/12/22 05:11:43;;;;;;;6.17;2.20;;;;;;;-1.76;80.12;102145.48;1911818;74;20999;-59
2022/12/22 05:14:12;;;;;;;6.10;4.47;;;;;;;-1.73;80.00;102148.17;1909682;75;21124;-59
2022/12/22 05:16:40;;;;;;;9.05;4.80;;;;;;;-1.73;80.09;102144.69;1909737;75;21054;-59
2022/12/22 05:19:09;;;;;;;13.10;5.78;;;;;;;-1.73;80.33;102148.17;1909683;75;21435;-59
2022/12/22 05:21:38;;;;;;;4.80;3.95;;;;;;;-1.71;80.31;102146.52;1910343;74;21128;-59
2022/12/22 05:24:07;;;;;;;17.85;7.95;;;;;;;-1.66;80.24;102147.56;1942835;74;21081;-59
2022/12/22 05:26:37;;;;;;;20.17;8.60;;;;;;;-1.53;80.27;102141.09;1943403;74;21038;-59
2022/12/22 05:29:06;;;;;;;12.13;5.75;;;;;;;-1.34;80.28;102146.87;1938562;74;21082;-59
2022/12/22 05:31:35;;;;;;;11.00;6.20;;;;;;;-1.13;80.08;102152.70;1932940;74;21046;-59
2022/12/22 05:34:04;;;;;;;18.05;6.37;;;;;;;-0.85;79.69;102149.29;1933036;74;21078;-59
2022/12/22 05:36:33;;;;;;;8.68;5.30;;;;;;;-0.47;79.05;102139.61;1933034;74;21109;-59
2022/12/22 05:39:01;;;;;;;32.03;8.70;;;;;;;-0.10;78.37;102145.39;1933107;74;21116;-61
2022/12/22 05:41:30;;;;;;;16.27;7.58;;;;;;;0.31;77.55;102147.33;1932930;74;21488;-60
2022/12/22 05:43:58;;;;;;;10.18;5.47;;;;;;;0.72;76.64;102156.15;1933042;74;21034;-61
2022/12/22 05:46:27;;;;;;;12.20;5.15;;;;;;;1.12;75.67;102147.98;1932978;74;21107;-60
2022/12/22 05:48:56;;;;;;;13.60;6.83;;;;;;;1.50;74.67;102146.65;1932935;74;21039;-60
2022/12/22 05:51:25;;;;;;;10.80;6.47;;;;;;;1.84;73.81;102155.11;1933049;74;21570;-61
2022/12/22 05:53:53;;;;;;;12.30;6.20;;;;;;;2.30;73.37;102151.20;1932990;74;21097;-61
2022/12/22 05:56:22;;;;;;;10.23;5.37;;;;;;;2.80;72.91;102143.80;1933038;74;21046;-61
2022/12/22 05:58:51;;;;;;;17.90;8.03;;;;;;;3.34;72.62;102143.27;1933049;74;21038;-61
2022/12/22 06:01:19;;;;;;;16.25;7.97;;;;;;;3.74;71.72;102145.94;1933046;74;21112;-63
2022/12/22 06:03:48;;;;;;;14.15;7.15;;;;;;;3.90;70.47;102145.70;1932093;74;21058;-62
2022/12/22 06:06:17;;;;;;;20.35;7.37;;;;;;;4.15;70.09;102145.55;1932984;74;21077;-62
2022/12/22 06:08:45;;;;;;;17.40;7.12;;;;;;;4.44;69.30;102146.23;1933159;74;21038;-63
2022/12/22 06:11:17;;;;;;;15.93;7.25;;;;;;;4.53;67.73;102134.56;1933062;74;21042;-58
2022/12/22 06:13:46;;;;;;;14.63;7.55;;;;;;;4.62;66.21;102137.25;1932425;74;21108;-60
2022/12/22 06:16:14;;;;;;;18.67;6.62;;;;;;;4.79;65.60;102137.81;1932982;74;21547;-61
2022/12/22 06:18:43;;;;;;;14.65;6.83;;;;;;;5.02;65.23;102145.37;1933150;74;21116;-63
2022/12/22 06:21:11;;;;;;;26.65;8.15;;;;;;;5.29;64.48;102139.86;1933039;74;21029;-63
2022/12/22 06:23:40;;;;;;;18.57;6.83;;;;;;;5.55;64.04;102134.78;1932938;74;21582;-60
2022/12/22 06:26:09;;;;;;;21.40;7.45;;;;;;;5.78;63.24;102141.39;1932995;74;21070;-58
2022/12/22 06:28:38;;;;;;;13.78;6.95;;;;;;;6.14;63.00;102144.12;1933123;74;21539;-59
2022/12/22 06:31:07;;;;;;;16.35;7.40;;;;;;;6.83;63.15;102134.14;1922412;74;21078;-59
2022/12/22 06:33:35;;;;;;;20.08;6.40;;;;;;;7.64;63.13;102132.59;1921384;75;21027;-59
2022/12/22 06:36:08;;;;;;;16.37;5.85;;;;;;;8.46;62.75;102132.97;1921429;75;21090;-59
2022/12/22 06:38:37;;;;;;;14.40;6.78;;;;;;;9.07;62.23;102130.25;1921319;75;21111;-60
2022/12/22 06:41:06;;;;;;;15.58;5.95;;;;;;;9.48;61.28;102126.72;1921438;75;21031;-60
2022/12/22 06:43:35;;;;;;;15.40;6.78;;;;;;;9.72;60.06;102127.27;1921520;75;21055;-60
2022/12/22 06:46:03;;;;;;;14.55;6.67;;;;;;;9.64;57.21;102124.75;1921400;75;21105;-59
2022/12/22 06:48:32;;;;;;;13.78;6.12;;;;;;;9.63;57.82;102123.88;1921217;75;21055;-60
2022/12/22 06:51:01;;;;;;;13.58;5.53;;;;;;;10.11;57.96;102126.31;1921406;75;21034;-59
2022/12/22 06:53:29;;;;;;;12.95;6.25;;;;;;;10.54;57.52;102123.02;1921456;75;21046;-59
2022/12/22 06:55:58;;;;;;;16.90;5.85;;;;;;;10.94;57.15;102121.87;1921424;75;21493;-59
2022/12/22 06:58:27;;;;;;;9.88;5.28;;;;;;;11.34;56.73;102126.81;1921406;75;21050;-59
2022/12/22 07:00:56;;;;;;;10.72;4.85;;;;;;;11.81;56.34;102124.95;1920571;75;21034;-60
2022/12/22 07:03:25;;;;;;;10.80;4.92;;;;;;;12.28;56.22;102127.42;1921431;75;21429;-60
2022/12/22 07:05:55;;;;;;;10.93;5.10;;;;;;;12.63;55.58;102130.51;1921328;75;21157;-60
2022/12/22 07:08:24;;;;;;;10.00;5.15;;;;;;;13.00;54.71;102129.55;1921401;75;21035;-60
2022/12/22 07:10:58;;;;;;;10.05;4.17;;;;;;;13.04;53.62;102127.69;1920536;75;21016;-60
2022/12/22 07:13:33;;;;;;;11.55;4.70;;;;;;;12.86;52.82;102127.28;1921542;75;21059;-59
2022/12/22 07:16:03;;;;;;;8.30;4.58;;;;;;;12.67;51.52;102126.91;1921403;75;21015;-59
2022/12/22 07:18:34;;;;;;;6.58;4.50;;;;;;;12.70;51.08;102128.59;1921301;75;21039;-59
2022/12/22 07:21:05;;;;;;;10.30;4.90;;;;;;;12.89;50.44;102127.22;1920395;75;21063;-59
2022/12/22 07:23:34;;;;;;;12.07;6.08;;;;;;;13.21;50.68;102121.95;1921384;75;21077;-60
2022/12/22 07:26:04;;;;;;;12.25;5.00;;;;;;;13.69;50.71;102128.09;1921319;75;21046;-59
2022/12/22 07:28:35;;;;;;;12.82;5.60;;;;;;;14.23;50.53;102122.44;1921512;75;21059;-60
2022/12/22 07:31:05;;;;;;;12.03;5.55;;;;;;;14.84;50.11;102119.55;1920585;74;21130;-60
2022/12/22 07:33:34;;;;;;;16.70;5.58;;;;;;;15.50;49.56;102121.60;1921645;75;21587;-61
2022/12/22 07:36:05;;;;;;;14.93;6.40;;;;;;;15.95;49.10;102121.66;1921689;75;21014;-63
2022/12/22 07:38:36;;;;;;;14.00;6.10;;;;;;;16.34;48.65;102120.08;1921333;75;21492;-62
2022/12/22 07:42:43;;;;;;;10.63;4.85;;;;;;;16.70;48.02;102120.80;1921302;75;21128;-59
2022/12/22 07:43:37;;;;;;;10.58;4.25;;;;;;;17.02;47.67;102114.56;1916893;75;21011;-59
2022/12/22 07:46:07;;;;;;;12.50;5.15;;;;;;;17.06;47.00;102112.16;1921333;75;21430;-59
2022/12/22 07:51:22;;;;;;;9.25;4.45;;;;;;;17.23;46.37;102110.10;1921293;75;21023;-59
2022/12/22 07:53:50;;;;;;;13.62;4.65;;;;;;;17.41;45.89;102109.70;1917522;75;21050;-60
2022/12/22 07:56:19;;;;;;;11.70;4.37;;;;;;;17.91;45.27;102106.52;1921296;75;21180;-60
2022/12/22 07:58:48;;;;;;;9.05;4.37;;;;;;;18.28;44.81;102100.70;1921427;75;21128;-62
2022/12/22 08:01:16;;;;;;;11.60;4.35;;;;;;;18.67;44.29;102100.47;1921376;75;21152;-59
2022/12/22 08:03:45;;;;;;;14.35;4.55;;;;;;;19.07;43.76;102090.86;1921245;75;21074;-59
2022/12/22 08:06:14;;;;;;;13.40;5.33;;;;;;;18.58;44.48;102095.61;1921360;75;21085;-58
2022/12/22 08:08:43;;;;;;;15.10;5.05;;;;;;;18.84;43.67;102087.62;1921233;75;21034;-59
2022/12/22 08:11:12;;;;;;;13.55;4.75;;;;;;;19.33;43.05;102077.91;1921301;75;21124;-60
2022/12/22 08:13:42;;;;;;;11.45;5.25;;;;;;;19.69;42.45;102081.70;1921212;75;21128;-60
2022/12/22 08:16:13;;;;;;;12.13;4.47;;;;;;;20.06;42.04;102076.95;1921468;75;21103;-58
2022/12/22 08:18:42;;;;;;;9.53;3.83;;;;;;;20.16;41.52;102073.27;1921540;75;21137;-59
2022/12/22 08:21:10;;;;;;;9.30;4.20;;;;;;;20.46;41.44;102073.77;1921306;75;21038;-60
2022/12/22 08:23:39;;;;;;;9.55;3.47;;;;;;;20.58;41.15;102069.00;1920363;75;21039;-59
2022/12/22 08:26:26;;;;;;;6.37;3.20;;;;;;;20.90;40.90;102063.06;1921379;75;21049;-61
2022/12/22 08:29:00;;;;;;;6.65;3.40;;;;;;;21.00;40.60;102061.52;1921298;75;21540;-60
2022/12/22 08:31:30;;;;;;;9.73;3.65;;;;;;;20.98;40.36;102058.56;1926127;74;21093;-61
2022/12/22 08:34:01;;;;;;;8.80;4.25;;;;;;;21.31;39.95;102061.42;1933464;74;21140;-59
2022/12/22 08:36:33;;;;;;;8.45;3.95;;;;;;;21.86;38.99;102049.83;1935886;74;21038;-60
2022/12/22 08:39:02;;;;;;;8.70;5.40;;;;;;;22.23;38.31;102050.05;1932961;74;20998;-59
2022/12/22 08:41:49;;;;;;;12.82;4.85;;;;;;;22.57;37.92;102046.91;1933187;74;21027;-60
2022/12/22 08:44:23;;;;;;;8.18;4.53;;;;;;;22.84;37.08;102044.13;1932969;74;21069;-59
2022/12/22 08:46:53;;;;;;;12.80;4.78;;;;;;;23.23;36.51;102040.94;1933175;74;21051;-59
2022/12/22 08:49:23;;;;;;;8.60;3.60;;;;;;;23.53;36.01;102047.24;1931865;74;20999;-59
2022/12/22 08:51:53;;;;;;;6.53;2.90;;;;;;;23.60;35.66;102036.91;1933081;74;21425;-58
2022/12/22 08:54:22;;;;;;;11.48;4.08;;;;;;;23.55;35.53;102041.76;1933274;74;21077;-61
2022/12/22 08:56:51;;;;;;;6.67;3.33;;;;;;;23.57;35.53;102042.03;1933014;74;21054;-58
2022/12/22 08:59:20;;;;;;;8.93;4.00;;;;;;;23.75;35.15;102033.07;1932975;74;21560;-61
2022/12/22 09:01:49;;;;;;;8.20;3.47;;;;;;;23.68;34.91;102032.69;1933176;74;21116;-61
2022/12/22 09:04:20;;;;;;;8.28;4.05;;;;;;;23.94;34.67;102037.10;1933045;74;21111;-61
2022/12/22 09:06:52;;;;;;;13.62;3.85;;;;;;;24.09;34.02;102033.27;1932997;74;21152;-60
2022/12/22 09:09:21;;;;;;;10.58;3.92;;;;;;;24.12;33.77;102030.33;1932905;74;21108;-61
2022/12/22 09:11:50;;;;;;;9.98;3.12;;;;;;;24.21;33.57;102029.63;1933097;74;21014;-61
2022/12/22 09:14:19;;;;;;;6.12;2.40;;;;;;;24.25;33.21;102033.81;1933018;74;21539;-61
2022/12/22 09:16:49;;;;;;;9.25;3.83;;;;;;;24.46;33.13;102031.28;1933056;74;21046;-61
2022/12/22 09:19:18;;;;;;;6.80;3.40;;;;;;;24.58;32.89;102024.11;1932985;74;21480;-62
2022/12/22 09:21:46;;;;;;;8.55;3.47;;;;;;;24.47;32.89;102020.02;1932933;74;21037;-61
2022/12/22 09:24:15;;;;;;;6.85;3.50;;;;;;;24.64;32.54;102008.83;1933128;74;21070;-61
2022/12/22 09:26:45;;;;;;;8.50;4.53;;;;;;;24.60;32.72;102008.69;1933154;74;21031;-62
2022/12/22 09:29:14;;;;;;;6.72;3.17;;;;;;;24.62;32.51;102001.38;1933111;73;21504;-62
2022/12/22 09:31:44;;;;;;;9.23;4.25;;;;;;;24.45;32.38;101999.09;1932720;73;21493;-61
2022/12/22 09:34:12;;;;;;;7.03;3.80;;;;;;;24.54;32.12;101993.52;1933012;73;21038;-62
2022/12/22 09:36:42;;;;;;;6.90;3.83;;;;;;;24.24;32.03;101988.18;1933079;74;21112;-61
2022/12/22 09:39:11;;;;;;;5.08;3.58;;;;;;;24.11;32.26;101984.23;1933013;74;21147;-61
2022/12/22 09:41:54;;;;;;;6.35;3.70;;;;;;;24.02;32.21;101980.91;1932907;74;21108;-61
2022/12/22 09:44:29;;;;;;;7.08;3.37;;;;;;;24.13;31.82;101971.52;1933071;74;21148;-63
2022/12/22 09:47:03;;;;;;;8.75;3.92;;;;;;;24.59;31.73;101971.98;1933215;74;21097;-61
2022/12/22 09:49:32;;;;;;;7.53;4.33;;;;;;;24.68;31.55;101969.05;1931773;73;21026;-61
2022/12/22 09:52:03;;;;;;;8.88;3.83;;;;;;;24.80;31.34;101964.52;1932995;74;21046;-62
2022/12/22 09:54:32;;;;;;;7.35;3.60;;;;;;;24.76;31.22;101961.20;1933144;74;21018;-61
2022/12/22 09:57:02;;;;;;;7.47;3.42;;;;;;;24.91;31.09;101961.80;1933047;74;21092;-60
2022/12/22 09:59:31;;;;;;;8.00;3.52;;;;;;;25.13;30.72;101954.69;1933098;74;21453;-60
2022/12/22 10:02:03;;;;;;;8.15;3.52;;;;;;;24.95;30.55;101954.34;1932378;74;21039;-60
2022/12/22 10:04:46;;;;;;;5.12;3.15;;;;;;;24.92;30.61;101952.76;1931462;74;21034;-58
2022/12/22 10:07:31;;;;;;;;;;;;;;;24.99;30.52;101949.94;1933113;74;21560;-59
2022/12/22 10:10:24;;;;;;;7.62;3.20;;;;;;;25.00;31.19;101950.28;1931416;74;20122;-58
2022/12/22 10:12:55;;;;;;;6.67;2.87;;;;;;;25.08;30.77;101950.16;1931574;74;21027;-61
2022/12/22 10:15:24;;;;;;;8.68;3.37;;;;;;;24.86;30.61;101949.19;1933033;74;21014;-59
2022/12/22 10:17:55;;;;;;;7.25;3.02;;;;;;;24.74;30.57;101948.36;1932885;74;21054;-62
2022/12/22 10:20:27;;;;;;;7.58;3.10;;;;;;;24.24;30.78;101951.35;1930117;74;21552;-61
2022/12/22 10:23:05;;;;;;;9.45;3.02;;;;;;;24.12;30.82;101948.26;1933989;74;21075;-63
2022/12/22 10:25:39;;;;;;;7.25;2.90;;;;;;;23.58;31.55;101949.64;1940290;74;21031;-65
2022/12/22 10:28:19;;;;;;;5.28;2.72;;;;;;;22.92;32.53;101945.92;1940085;74;21050;-65
2022/12/22 10:30:53;;;;;;;8.65;2.80;;;;;;;22.79;32.43;101942.91;1937912;73;21188;-66
2022/12/22 10:33:21;;;;;;;12.30;3.00;;;;;;;23.20;31.72;101939.05;1909986;74;21073;-60
2022/12/22 10:35:58;;;;;;;7.60;2.30;;;;;;;23.36;31.46;101940.98;1932966;74;20999;-61
2022/12/22 10:38:37;;;;;;;6.22;2.62;;;;;;;23.51;31.10;101941.66;1924948;74;21517;-62
2022/12/22 10:41:17;;;;;;;8.13;2.15;;;;;;;23.88;30.84;101930.84;1924670;74;21211;-62
2022/12/22 10:43:58;;;;;;;7.22;2.70;;;;;;;23.68;30.86;101930.52;1924051;74;21110;-62
2022/12/22 10:46:36;;;;;;;9.90;3.15;;;;;;;23.45;31.19;101926.01;1924618;74;21043;-61
2022/12/22 10:49:13;;;;;;;8.78;3.75;;;;;;;23.36;31.25;101919.48;1910520;74;21457;-62
2022/12/22 10:51:45;;;;;;;10.75;4.97;;;;;;;23.34;31.24;101923.27;1933139;74;21010;-63
2022/12/22 10:54:35;;;;;;;7.95;3.45;;;;;;;23.00;31.34;101915.84;1933063;74;21488;-60
2022/12/22 10:57:18;;;;;;;8.45;3.30;;;;;;;22.80;31.62;101919.13;1932962;74;21069;-61
2022/12/22 10:59:55;;;;;;;7.90;2.90;;;;;;;22.57;31.76;101914.05;1931116;74;21071;-66
2022/12/22 11:02:38;;;;;;;4.17;2.30;;;;;;;22.59;31.83;101913.45;1932870;74;21133;-64
2022/12/22 11:05:11;;;;;;;6.22;2.80;;;;;;;22.28;31.96;101908.45;1933314;74;21049;-63
2022/12/22 11:07:42;;;;;;;14.55;3.92;;;;;;;22.09;32.30;101907.97;1933238;74;21019;-66
2022/12/22 11:10:19;;;;;;;6.58;2.67;;;;;;;22.14;32.33;101897.78;1932302;74;21034;-66
2022/12/22 11:13:09;;;;;;;5.47;2.40;;;;;;;22.02;32.21;101896.79;1932533;73;21414;-62
2022/12/22 11:15:55;;;;;;;6.87;2.72;;;;;;;21.55;32.54;101894.21;1908395;74;21058;-62
2022/12/22 11:18:41;;;;;;;4.08;2.10;;;;;;;20.32;33.82;101896.22;1931734;74;21120;-60
2022/12/22 11:21:15;;;;;;;5.28;2.30;;;;;;;20.25;33.91;101899.77;1931795;74;21709;-63
2022/12/22 11:24:08;;;;;;;6.22;2.27;;;;;;;20.28;33.82;101893.84;1932888;74;21034;-61
2022/12/22 11:26:59;;;;;;;5.22;2.40;;;;;;;20.18;33.91;101890.89;1827899;74;21164;-62
2022/12/22 11:29:37;;;;;;;7.03;1.90;;;;;;;20.02;34.12;101897.15;1930459;74;21489;-58
2022/12/22 11:32:24;;;;;;;9.03;2.00;;;;;;;19.92;34.19;101893.78;1932559;73;21341;-59
2022/12/22 11:35:13;;;;;;;3.95;1.75;;;;;;;20.08;34.16;101893.73;1854802;76;21093;-59
2022/12/22 11:37:50;;;;;;;5.15;2.62;;;;;;;20.00;34.25;101890.19;1873852;76;21496;-63
2022/12/22 11:40:34;;;;;;;11.05;2.05;;;;;;;19.77;34.53;101889.77;1873902;76;21046;-62
2022/12/22 11:43:27;;;;;;;4.37;2.02;;;;;;;19.62;34.79;101896.84;1895612;75;21042;-62
2022/12/22 11:46:29;;;;;;;11.75;2.27;;;;;;;19.38;35.27;101897.77;1889435;74;21120;-66
2022/12/22 11:49:18;;;;;;;4.47;1.80;;;;;;;19.02;35.70;101899.42;1893474;75;21082;-60
2022/12/22 11:52:06;;;;;;;3.60;1.77;;;;;;;18.85;36.08;101889.67;1886487;75;21679;-61
2022/12/22 11:54:55;;;;;;;6.67;1.90;;;;;;;18.61;36.42;101897.19;1864296;75;21127;-61
2022/12/22 11:57:26;;;;;;;4.87;1.80;;;;;;;18.27;36.91;101888.34;1888112;75;21611;-63
2022/12/22 12:00:09;;;;;;;6.12;2.20;;;;;;;17.92;37.42;101893.72;1885363;75;21049;-64
2022/12/22 12:02:59;;;;;;;3.83;1.90;;;;;;;17.77;37.70;101889.16;1889509;75;21025;-59
2022/12/22 12:05:40;;;;;;;4.78;1.92;;;;;;;17.51;38.11;101883.34;1893241;75;21128;-66
2022/12/22 12:08:28;;;;;;;3.27;1.87;;;;;;;17.24;38.56;101878.44;1890765;75;21034;-59
2022/12/22 12:11:17;;;;;;;5.28;2.10;;;;;;;17.09;38.78;101884.03;1887666;74;21500;-58
2022/12/22 12:14:04;;;;;;;4.10;1.90;;;;;;;16.73;39.33;101882.65;1888545;75;21057;-61
2022/12/22 12:16:42;;;;;;;6.12;1.95;;;;;;;16.77;39.32;101880.23;1887823;75;21805;-62
2022/12/22 12:19:22;;;;;;;4.12;1.95;;;;;;;16.79;39.27;101885.02;1896845;75;21135;-66
2022/12/22 12:21:54;;;;;;;14.55;5.35;;;;;;;16.58;39.52;101881.09;1898808;74;21037;-65
2022/12/22 12:24:28;;;;;;;5.60;2.15;;;;;;;15.95;40.54;101883.91;1890351;75;21053;-65
2022/12/22 12:27:08;;;;;;;3.65;1.72;;;;;;;15.04;42.08;101890.73;1898067;74;21101;-65
2022/12/22 12:29:56;;;;;;;5.12;1.98;;;;;;;14.17;43.53;101886.44;1886224;74;21057;-65
2022/12/22 12:32:37;;;;;;;4.45;2.15;;;;;;;13.51;44.72;101892.20;1902837;74;21527;-65
2022/12/22 12:35:11;;;;;;;9.48;2.05;;;;;;;12.97;45.80;101896.99;1917121;73;21069;-60
2022/12/22 12:37:43;;;;;;;5.87;2.30;;;;;;;12.52;46.73;101897.00;1921431;73;21058;-59
2022/12/22 12:40:42;;;;;;;13.72;3.95;;;;;;;12.18;47.34;101893.10;1931499;74;21121;-61
2022/12/22 12:43:12;;;;;;;11.75;3.45;;;;;;;11.97;47.85;101893.23;1903469;74;21435;-60
2022/12/22 12:45:44;;;;;;;10.13;2.10;;;;;;;11.76;48.40;101898.56;1911993;74;21040;-61
2022/12/22 12:48:24;;;;;;;7.50;3.27;;;;;;;11.57;48.73;101895.08;1927530;74;21035;-61
2022/12/22 12:50:55;;;;;;;8.50;3.62;;;;;;;11.43;49.01;101899.81;1966023;73;21118;-65
2022/12/22 12:53:28;;;;;;;8.15;3.37;;;;;;;11.30;49.31;101895.28;1936984;73;21030;-62
2022/12/22 12:56:02;;;;;;;11.43;4.58;;;;;;;11.20;49.52;101905.19;1964239;73;21050;-63
2022/12/22 12:58:41;;;;;;;7.08;3.52;;;;;;;11.10;49.70;101902.36;1964107;73;21018;-63
2022/12/22 13:01:12;;;;;;;6.30;3.30;;;;;;;10.99;49.93;101905.66;1963987;73;21027;-57
2022/12/22 13:03:44;;;;;;;6.28;2.75;;;;;;;10.85;50.19;101905.97;1963954;73;21015;-58
2022/12/22 13:06:48;;;;;;;4.47;2.52;;;;;;;10.72;50.49;101904.05;1964261;73;21527;-58
2022/12/22 13:09:20;;;;;;;12.63;3.20;;;;;;;10.61;50.73;101908.68;1964049;73;21085;-57
2022/12/22 13:11:49;;;;;;;10.88;3.40;;;;;;;10.51;50.92;101905.38;1963969;73;21030;-59
2022/12/22 13:14:53;;;;;;;7.28;3.22;;;;;;;10.42;51.10;101902.47;1963879;73;21163;-59
2022/12/22 13:17:43;;;;;;;10.72;3.50;;;;;;;10.34;51.33;101903.05;1964444;73;21083;-57
2022/12/22 13:20:17;;;;;;;13.05;5.95;;;;;;;10.22;51.59;101904.59;1964316;72;21161;-60
2022/12/22 13:22:46;;;;;;;16.77;5.03;;;;;;;10.13;51.87;101906.94;1965585;73;21467;-60
2022/12/22 13:25:19;;;;;;;17.27;4.92;;;;;;;10.02;52.20;101911.53;1965947;73;20984;-58
2022/12/22 13:27:50;;;;;;;30.83;5.23;;;;;;;9.89;52.54;101917.45;1966205;73;21506;-57
2022/12/22 13:30:21;;;;;;;17.62;5.25;;;;;;;9.80;52.78;101917.61;1965873;73;21462;-58
2022/12/22 13:32:50;;;;;;;20.70;7.10;;;;;;;9.70;53.02;101921.28;1965957;73;21105;-58
2022/12/22 13:35:34;;;;;;;18.42;5.25;;;;;;;9.62;53.16;101914.83;1967011;73;21519;-57
2022/12/22 13:38:03;;;;;;;24.05;8.83;;;;;;;9.54;53.28;101912.79;1969456;73;21431;-57
2022/12/22 13:40:34;;;;;;;23.20;7.30;;;;;;;9.49;53.27;101912.84;1969258;73;21024;-57
2022/12/22 13:43:15;;;;;;;14.80;5.08;;;;;;;9.40;53.40;101911.67;1966062;73;21471;-58
2022/12/22 13:45:49;;;;;;;13.28;4.70;;;;;;;9.31;53.56;101911.81;1969323;71;21064;-57
2022/12/22 13:48:23;;;;;;;27.95;5.10;;;;;;;9.21;53.72;101915.03;1969272;73;21055;-58
2022/12/22 13:50:55;;;;;;;11.05;5.05;;;;;;;9.13;53.96;101919.09;1969367;73;21068;-58
2022/12/22 13:53:44;;;;;;;12.23;4.72;;;;;;;9.02;54.25;101918.37;1969368;73;21024;-57
2022/12/22 13:56:21;;;;;;;9.85;4.58;;;;;;;8.92;54.55;101909.73;1969571;73;21102;-57
2022/12/22 13:58:59;;;;;;;18.48;6.20;;;;;;;8.82;54.82;101924.75;1969122;73;21036;-57
2022/12/22 14:01:28;;;;;;;22.52;5.67;;;;;;;8.74;54.98;101921.33;1969310;73;21051;-57
2022/12/22 14:04:00;;;;;;;20.05;6.53;;;;;;;8.68;55.11;101929.30;1969256;73;21024;-57
2022/12/22 14:06:34;;;;;;;35.55;7.42;;;;;;;8.61;55.27;101922.38;1969135;72;21113;-57
2022/12/22 14:09:17;;;;;;;40.25;7.22;;;;;;;8.53;55.48;101921.16;1969562;73;21008;-57
2022/12/22 14:11:48;;;;;;;27.93;7.80;;;;;;;8.45;55.59;101914.69;1969440;73;21008;-57
2022/12/22 14:14:20;;;;;;;31.60;6.37;;;;;;;8.36;55.74;101920.02;1967907;72;21345;-57
2022/12/22 14:16:51;;;;;;;22.77;6.83;;;;;;;8.29;55.93;101926.20;1969360;73;21032;-57
2022/12/22 14:19:23;;;;;;;42.73;7.55;;;;;;;8.20;56.10;101924.99;1969417;73;21032;-55
2022/12/22 14:21:55;;;;;;;41.58;9.18;;;;;;;8.06;56.31;101922.06;1969206;73;21133;-55
2022/12/22 14:24:26;;;;;;;37.85;8.45;;;;;;;7.99;56.42;101919.08;1966680;73;21032;-55
2022/12/22 14:26:59;;;;;;;41.48;9.20;;;;;;;7.90;56.67;101923.09;1943719;72;21020;-55
2022/12/22 14:29:30;;;;;;;36.50;8.95;;;;;;;7.84;56.84;101917.47;1935160;74;21086;-57
2022/12/22 14:32:03;;;;;;;40.48;9.25;;;;;;;7.80;56.89;101921.00;1935088;74;21101;-57
2022/12/22 14:34:34;;;;;;;36.40;9.63;;;;;;;7.73;57.11;101925.41;1935146;74;21106;-57
2022/12/22 14:37:03;;;;;;;20.35;8.23;;;;;;;7.68;57.21;101921.09;1934901;74;21486;-58
2022/12/22 14:39:33;;;;;;;20.68;7.83;;;;;;;7.61;57.36;101922.02;1934947;74;21044;-57
2022/12/22 14:42:08;;;;;;;25.05;6.97;;;;;;;7.50;57.51;101923.41;1934961;74;21039;-57
2022/12/22 14:44:45;;;;;;;24.20;7.03;;;;;;;7.41;57.69;101918.23;1935115;72;21015;-58
2022/12/22 14:47:17;;;;;;;21.62;7.25;;;;;;;7.32;57.76;101929.22;1935015;74;21153;-55
2022/12/22 14:50:01;;;;;;;21.42;8.03;;;;;;;7.21;57.98;101927.11;1935048;74;21036;-55
2022/12/22 14:52:44;;;;;;;23.87;7.17;;;;;;;7.11;58.22;101931.51;1935334;73;21056;-55
2022/12/22 14:55:31;;;;;;;21.50;7.78;;;;;;;7.03;58.34;101929.84;1933486;73;21122;-57
2022/12/22 14:58:12;;;;;;;25.82;11.18;;;;;;;6.95;58.43;101932.05;1915452;74;21067;-57
2022/12/22 15:00:43;;;;;;;29.02;12.75;;;;;;;6.87;58.65;101935.58;1935028;74;21035;-57
2022/12/22 15:03:34;;;;;;;34.78;13.95;;;;;;;6.80;58.84;101929.48;1934003;74;21568;-58
2022/12/22 15:06:23;;;;;;;43.20;14.15;;;;;;;6.72;58.97;101932.59;1933014;74;21032;-57
2022/12/22 15:08:53;;;;;;;32.42;13.85;;;;;;;6.66;59.08;101945.67;1932896;74;21102;-57
2022/12/22 15:11:24;;;;;;;38.90;15.35;;;;;;;6.58;59.26;101944.39;1917394;74;21047;-57
2022/12/22 15:13:52;;;;;;;36.08;15.08;;;;;;;6.52;59.47;101941.36;1919109;74;21174;-57
2022/12/22 15:16:23;;;;;;;42.08;16.12;;;;;;;6.47;59.64;101943.11;1925482;74;21002;-57
2022/12/22 15:18:54;;;;;;;34.78;14.70;;;;;;;6.43;59.74;101940.08;1933417;74;21117;-58
2022/12/22 15:21:23;;;;;;;32.38;13.93;;;;;;;6.40;59.84;101945.34;1930065;74;21002;-57
2022/12/22 15:23:52;;;;;;;38.28;13.93;;;;;;;6.35;59.96;101945.78;1915195;74;21087;-58
2022/12/22 15:26:20;;;;;;;39.58;13.10;;;;;;;6.30;60.02;101947.53;1934409;74;21002;-58